createdAt,value
2022-12-23T00:01:28.487Z,10.80
2022-12-23T00:03:59.618Z,10.65
2022-12-23T00:06:27.299Z,10.60
2022-12-23T00:08:58.421Z,10.80
2022-12-23T00:11:27.407Z,10.60
2022-12-23T00:14:20.418Z,10.70
2022-12-23T00:16:47.744Z,10.50
2022-12-23T00:19:14.553Z,11.20
2022-12-23T00:21:41.329Z,10.55
2022-12-23T00:24:08.144Z,10.70
2022-12-23T00:26:34.857Z,10.80
2022-12-23T00:29:01.650Z,10.50
2022-12-23T00:31:28.411Z,10.80
2022-12-23T00:33:55.268Z,10.70
2022-12-23T00:36:28.345Z,11.20
2022-12-23T00:39:14.973Z,10.60
2022-12-23T00:42:00.933Z,10.70
2022-12-23T00:44:27.715Z,10.60
2022-12-23T00:46:54.599Z,10.40
2022-12-23T00:49:40.019Z,10.50
2022-12-23T00:52:09.138Z,10.68
2022-12-23T00:54:36.471Z,10.50
2022-12-23T00:57:03.703Z,10.90
2022-12-23T00:59:31.417Z,10.60
2022-12-23T01:02:16.805Z,10.70
2022-12-23T01:05:04.188Z,10.50
2022-12-23T01:07:31.069Z,12.48
2022-12-23T01:09:57.803Z,10.40
2022-12-23T01:12:24.567Z,10.40
2022-12-23T01:14:51.303Z,10.80
2022-12-23T01:17:18.599Z,10.50
2022-12-23T01:19:45.399Z,10.60
2022-12-23T01:22:12.159Z,10.50
2022-12-23T01:24:39.030Z,10.70
2022-12-23T01:27:05.773Z,10.50
2022-12-23T01:29:32.695Z,10.40
2022-12-23T01:31:59.476Z,10.57
2022-12-23T01:34:31.089Z,10.60
2022-12-23T01:37:01.211Z,10.70
2022-12-23T01:39:28.032Z,10.70
2022-12-23T01:42:13.239Z,10.60
2022-12-23T01:45:04.355Z,10.40
2022-12-23T01:47:45.537Z,10.60
2022-12-23T01:50:23.735Z,10.40
2022-12-23T01:53:12.369Z,10.40
2022-12-23T01:55:48.617Z,10.43
2022-12-23T01:58:25.984Z,10.70
2022-12-23T02:01:13.868Z,10.55
2022-12-23T02:03:44.220Z,10.50
2022-12-23T02:06:34.895Z,10.60
2022-12-23T02:09:17.114Z,10.50
2022-12-23T02:12:00.860Z,10.50
2022-12-23T02:15:05.204Z,10.60
2022-12-23T02:17:56.361Z,10.60
2022-12-23T02:20:44.256Z,10.80
2022-12-23T02:23:25.825Z,10.63
2022-12-23T02:26:01.312Z,10.40
2022-12-23T02:28:56.379Z,11.10
2022-12-23T02:31:32.763Z,10.40
2022-12-23T02:34:23.303Z,10.60
2022-12-23T02:37:08.293Z,10.57
2022-12-23T02:39:53.891Z,10.80
2022-12-23T02:42:35.881Z,11.40
2022-12-23T02:45:18.630Z,10.60
2022-12-23T02:47:51.718Z,10.60
2022-12-23T02:50:28.186Z,10.40
2022-12-23T02:52:58.362Z,11.20
2022-12-23T02:55:30.548Z,10.68
2022-12-23T02:58:01.360Z,10.50
2022-12-23T03:00:28.767Z,10.70
2022-12-23T03:02:55.609Z,10.40
2022-12-23T03:05:33.362Z,10.50
2022-12-23T03:08:04.669Z,10.60
2022-12-23T03:10:50.215Z,10.80
2022-12-23T03:13:40.578Z,10.90
2022-12-23T03:16:37.344Z,10.60
2022-12-23T03:19:29.015Z,11.60
2022-12-23T03:22:51.051Z,10.40
2022-12-23T03:25:24.539Z,10.40
2022-12-23T03:28:25.325Z,10.50
2022-12-23T03:30:57.405Z,10.40
2022-12-23T03:33:34.987Z,10.30
2022-12-23T03:36:31.110Z,10.30
2022-12-23T03:38:58.351Z,10.40
2022-12-23T03:41:31.185Z,11.20
2022-12-23T03:44:08.368Z,10.40
2022-12-23T03:46:44.079Z,10.75
2022-12-23T03:49:16.549Z,10.80
2022-12-23T03:51:57.438Z,10.30
2022-12-23T03:54:31.381Z,10.40
2022-12-23T03:57:02.967Z,11.20
2022-12-23T03:59:34.197Z,10.40
2022-12-23T04:02:34.764Z,10.50
2022-12-23T04:05:28.769Z,10.60
2022-12-23T04:08:01.463Z,10.60
2022-12-23T04:10:28.800Z,10.70
2022-12-23T04:12:55.801Z,10.50
2022-12-23T04:15:24.899Z,10.63
2022-12-23T04:17:52.899Z,11.00
2022-12-23T04:20:19.810Z,10.40
2022-12-23T04:22:46.788Z,10.50
2022-12-23T04:25:15.080Z,11.02
2022-12-23T04:27:41.847Z,10.60
2022-12-23T04:30:10.610Z,10.82
2022-12-23T04:32:37.716Z,11.00
2022-12-23T04:35:04.884Z,10.52
2022-12-23T04:37:31.648Z,10.50
2022-12-23T04:39:58.404Z,10.60
2022-12-23T04:42:25.559Z,10.52
2022-12-23T04:44:52.475Z,10.65
2022-12-23T04:47:19.233Z,10.50
2022-12-23T04:49:46.024Z,10.50
2022-12-23T04:52:12.881Z,10.70
2022-12-23T04:54:45.769Z,10.90
2022-12-23T04:57:13.558Z,10.50
2022-12-23T04:59:40.298Z,11.20
2022-12-23T05:02:08.200Z,10.70
2022-12-23T05:04:35.322Z,10.60
2022-12-23T05:07:02.074Z,10.70
2022-12-23T05:09:28.878Z,10.63
2022-12-23T05:11:55.681Z,10.77
2022-12-23T05:14:22.483Z,10.95
2022-12-23T05:16:49.309Z,10.98
2022-12-23T05:19:16.198Z,10.80
2022-12-23T05:21:42.922Z,10.60
2022-12-23T05:24:09.793Z,10.80
2022-12-23T05:26:36.518Z,10.60
2022-12-23T05:29:03.407Z,10.45
2022-12-23T05:31:30.179Z,10.60
2022-12-23T05:34:02.281Z,10.40
2022-12-23T05:36:33.402Z,10.60
2022-12-23T05:39:00.366Z,10.40
2022-12-23T05:41:27.141Z,10.60
2022-12-23T05:43:54.064Z,10.60
2022-12-23T05:46:26.154Z,10.80
2022-12-23T05:48:53.747Z,10.40
2022-12-23T05:51:20.599Z,10.70
2022-12-23T05:53:47.386Z,10.50
2022-12-23T05:56:14.116Z,10.40
2022-12-23T05:58:41.001Z,10.40
2022-12-23T06:01:07.955Z,10.50
2022-12-23T06:03:35.031Z,10.50
2022-12-23T06:06:01.912Z,10.70
2022-12-23T06:08:28.619Z,10.60
2022-12-23T06:10:55.473Z,10.80
2022-12-23T06:13:22.281Z,10.30
2022-12-23T06:15:49.127Z,10.60
2022-12-23T06:18:15.871Z,10.32
2022-12-23T06:20:45.772Z,10.50
2022-12-23T06:23:12.522Z,10.90
2022-12-23T06:25:39.395Z,10.90
2022-12-23T06:28:07.865Z,10.40
2022-12-23T06:30:35.089Z,10.65
2022-12-23T06:33:01.882Z,10.50
2022-12-23T06:35:28.653Z,10.60
2022-12-23T06:37:55.424Z,10.40
2022-12-23T06:40:22.178Z,10.60
2022-12-23T06:42:48.932Z,10.40
2022-12-23T06:45:15.789Z,10.80
2022-12-23T06:47:42.652Z,10.60
2022-12-23T06:50:09.975Z,10.50
2022-12-23T06:52:36.708Z,11.90
2022-12-23T06:55:03.743Z,10.80
2022-12-23T06:57:30.470Z,10.60
2022-12-23T06:59:57.217Z,11.00
2022-12-23T07:02:24.005Z,10.80
2022-12-23T07:04:50.786Z,10.90
2022-12-23T07:07:17.641Z,10.60
2022-12-23T07:09:44.448Z,10.70
2022-12-23T07:12:11.232Z,10.70
2022-12-23T07:14:37.939Z,11.20
2022-12-23T07:17:04.881Z,10.40
2022-12-23T07:19:31.684Z,10.50
2022-12-23T07:21:58.620Z,10.60
2022-12-23T07:24:25.398Z,10.50
2022-12-23T07:26:52.326Z,10.50
2022-12-23T07:29:19.114Z,10.80
2022-12-23T07:31:46.052Z,10.40
2022-12-23T07:34:12.828Z,10.80
2022-12-23T07:36:39.604Z,10.50
2022-12-23T07:39:06.530Z,10.50
2022-12-23T07:41:33.638Z,10.43
2022-12-23T07:44:00.368Z,10.40
2022-12-23T07:46:27.406Z,10.60
2022-12-23T07:48:54.203Z,10.30
2022-12-23T07:51:21.073Z,10.40
2022-12-23T07:53:50.947Z,10.70
2022-12-23T07:56:18.963Z,10.90
2022-12-23T07:58:49.967Z,10.70
2022-12-23T08:01:17.730Z,10.70
2022-12-23T08:03:44.918Z,10.97
2022-12-23T08:06:13.951Z,10.60
2022-12-23T08:08:43.259Z,10.30
2022-12-23T08:11:11.824Z,10.50
2022-12-23T08:13:40.442Z,10.90
2022-12-23T08:16:08.476Z,10.60
2022-12-23T08:18:37.426Z,10.50
2022-12-23T08:21:06.909Z,10.77
2022-12-23T08:23:34.496Z,10.53
2022-12-23T08:26:13.059Z,10.90
2022-12-23T08:28:41.642Z,10.80
2022-12-23T08:31:10.764Z,11.00
2022-12-23T08:33:39.579Z,10.50
2022-12-23T08:36:08.215Z,10.50
2022-12-23T08:38:36.363Z,10.55
2022-12-23T08:41:08.043Z,10.40
2022-12-23T08:43:36.172Z,10.70
2022-12-23T08:46:03.890Z,10.60
2022-12-23T08:48:31.222Z,11.20
2022-12-23T08:51:02.181Z,10.70
2022-12-23T08:53:29.111Z,11.00
2022-12-23T08:55:55.878Z,10.93
2022-12-23T08:58:22.693Z,10.40
2022-12-23T09:00:49.409Z,10.60
2022-12-23T09:03:16.290Z,10.68
2022-12-23T09:05:43.245Z,12.13
2022-12-23T09:08:09.988Z,10.70
2022-12-23T09:10:43.423Z,10.80
2022-12-23T09:13:19.987Z,10.60
2022-12-23T09:15:52.080Z,10.43
2022-12-23T09:18:18.968Z,10.70
2022-12-23T09:20:45.683Z,11.60
2022-12-23T09:23:12.452Z,10.50
2022-12-23T09:25:39.210Z,10.90
2022-12-23T09:28:07.040Z,11.10
2022-12-23T09:30:33.811Z,11.20
2022-12-23T09:33:00.619Z,10.60
2022-12-23T09:35:27.337Z,10.50
2022-12-23T09:37:54.092Z,10.90
2022-12-23T09:40:21.938Z,11.07
2022-12-23T09:43:18.355Z,10.50
2022-12-23T09:46:09.952Z,11.27
2022-12-23T09:48:45.395Z,10.60
2022-12-23T09:51:13.738Z,10.93
2022-12-23T09:53:52.889Z,10.73
2022-12-23T09:56:23.417Z,10.90
2022-12-23T09:59:03.195Z,11.05
2022-12-23T10:01:57.358Z,12.38
2022-12-23T10:04:39.070Z,10.70
2022-12-23T10:07:05.841Z,11.00
2022-12-23T10:09:39.126Z,11.00
2022-12-23T10:12:27.265Z,11.30
2022-12-23T10:14:58.481Z,11.32
2022-12-23T10:17:35.203Z,11.90
2022-12-23T10:20:05.473Z,10.80
2022-12-23T10:22:44.529Z,11.60
2022-12-23T10:25:25.216Z,11.00
2022-12-23T10:27:52.114Z,11.02
2022-12-23T10:33:30.524Z,11.30
2022-12-23T10:36:32.570Z,11.63
2022-12-23T10:39:19.077Z,11.07
2022-12-23T10:42:39.533Z,11.10
2022-12-23T10:45:24.831Z,11.00
2022-12-23T10:47:51.536Z,11.48
2022-12-23T10:50:38.790Z,11.50
2022-12-23T10:53:11.721Z,11.40
2022-12-23T10:55:39.402Z,11.10
2022-12-23T10:58:12.820Z,11.80
2022-12-23T11:00:43.476Z,11.23
2022-12-23T11:03:37.742Z,10.88
2022-12-23T11:06:07.930Z,10.80
2022-12-23T11:08:37.332Z,10.70
2022-12-23T11:11:04.733Z,10.80
2022-12-23T11:13:36.049Z,11.10
2022-12-23T11:16:15.211Z,10.90
2022-12-23T11:19:01.458Z,10.73
2022-12-23T11:21:30.096Z,10.80
2022-12-23T11:24:19.031Z,11.00
2022-12-23T11:26:49.112Z,10.70
2022-12-23T11:29:27.869Z,10.70
2022-12-23T11:31:55.211Z,10.50
2022-12-23T11:34:24.966Z,10.60
2022-12-23T11:37:06.981Z,10.50
2022-12-23T11:39:37.042Z,10.93
2022-12-23T11:42:17.087Z,10.95
2022-12-23T11:44:49.866Z,11.10
2022-12-23T11:47:22.580Z,12.00
2022-12-23T11:49:53.397Z,11.10
2022-12-23T11:52:30.070Z,11.00
2022-12-23T11:55:00.232Z,11.00
2022-12-23T11:57:32.617Z,10.60
2022-12-23T12:00:02.843Z,10.85
2022-12-23T12:02:40.245Z,10.50
2022-12-23T12:05:22.679Z,10.32
2022-12-23T12:07:50.774Z,10.30
2022-12-23T12:10:24.870Z,10.60
2022-12-23T12:12:56.462Z,10.60
2022-12-23T12:16:01.457Z,10.60
2022-12-23T12:18:29.331Z,10.90
2022-12-23T12:21:01.536Z,10.50
2022-12-23T12:23:47.618Z,11.00
2022-12-23T12:26:28.374Z,10.70
2022-12-23T12:29:21.541Z,10.60
2022-12-23T12:31:51.562Z,11.00
2022-12-23T12:34:19.183Z,10.70
2022-12-23T12:37:10.125Z,10.98
2022-12-23T12:40:01.344Z,11.10
2022-12-23T12:42:44.152Z,10.70
2022-12-23T12:45:21.270Z,10.80
2022-12-23T12:48:18.539Z,11.20
2022-12-23T12:51:13.757Z,10.90
2022-12-23T12:54:05.880Z,10.60
2022-12-23T12:56:39.234Z,10.80
2022-12-23T12:59:06.137Z,10.80
2022-12-23T13:01:48.331Z,10.90
2022-12-23T13:04:26.926Z,11.00
2022-12-23T13:07:08.972Z,10.70
2022-12-23T13:10:11.965Z,11.00
2022-12-23T13:12:45.836Z,10.50
2022-12-23T13:15:32.294Z,10.50
2022-12-23T13:18:04.649Z,10.90
2022-12-23T13:20:48.439Z,10.50
2022-12-23T13:26:39.914Z,10.88
2022-12-23T13:29:21.531Z,10.70
2022-12-23T13:32:20.391Z,10.70
2022-12-23T13:35:03.570Z,10.70
2022-12-23T13:37:42.729Z,10.63
2022-12-23T13:40:12.479Z,11.00
2022-12-23T13:42:52.242Z,11.80
2022-12-23T13:45:20.323Z,11.40
2022-12-23T13:48:04.578Z,10.98
2022-12-23T13:50:50.300Z,10.90
2022-12-23T13:53:48.259Z,11.00
2022-12-23T13:56:45.300Z,10.52
2022-12-23T13:59:14.335Z,10.40
2022-12-23T14:01:41.129Z,10.43
2022-12-23T14:04:37.383Z,10.77
2022-12-23T14:07:19.783Z,10.75
2022-12-23T14:09:53.189Z,11.05
2022-12-23T14:12:29.439Z,11.10
2022-12-23T14:15:34.001Z,10.82
2022-12-23T14:18:04.900Z,10.50
2022-12-23T14:20:50.480Z,10.90
2022-12-23T14:23:39.088Z,10.50
2022-12-23T14:26:36.702Z,11.30
2022-12-23T14:29:25.354Z,10.65
2022-12-23T14:31:58.121Z,10.80
2022-12-23T14:34:29.031Z,10.82
2022-12-23T14:37:37.188Z,11.20
2022-12-23T14:40:37.341Z,10.90
2022-12-23T14:43:22.617Z,10.90
2022-12-23T14:46:06.980Z,11.20
2022-12-23T14:48:33.869Z,11.48
2022-12-23T14:51:09.741Z,10.90
2022-12-23T14:53:57.382Z,10.95
2022-12-23T14:56:39.533Z,10.80
2022-12-23T14:59:46.660Z,11.30
2022-12-23T15:02:21.952Z,11.80
2022-12-23T15:04:55.941Z,12.40
2022-12-23T15:07:26.612Z,12.32
2022-12-23T15:10:01.362Z,12.60
2022-12-23T15:12:43.566Z,12.85
2022-12-23T15:15:28.061Z,13.40
2022-12-23T15:18:06.981Z,11.13
2022-12-23T15:20:35.223Z,12.40
2022-12-23T15:23:08.094Z,11.93
2022-12-23T15:25:40.220Z,12.23
2022-12-23T15:28:18.080Z,12.65
2022-12-23T15:30:56.643Z,11.90
2022-12-23T15:34:04.872Z,11.90
2022-12-23T15:36:30.805Z,12.18
2022-12-23T15:38:59.692Z,11.77
2022-12-23T15:41:26.760Z,11.70
2022-12-23T15:43:57.891Z,12.00
2022-12-23T15:46:29.840Z,11.30
2022-12-23T15:48:57.861Z,11.77
2022-12-23T15:52:05.907Z,11.20
2022-12-23T15:54:30.181Z,12.85
2022-12-23T15:56:59.804Z,11.90
2022-12-23T15:59:32.902Z,12.10
2022-12-23T16:02:49.789Z,11.90
2022-12-23T16:05:05.645Z,13.27
2022-12-23T16:07:36.284Z,11.60
2022-12-23T16:10:12.136Z,12.35
2022-12-23T16:12:40.001Z,12.20
2022-12-23T16:15:29.925Z,11.30
2022-12-23T16:18:22.816Z,12.98
2022-12-23T16:20:53.728Z,12.88
2022-12-23T16:23:21.753Z,12.70
2022-12-23T16:25:54.470Z,11.70
2022-12-23T16:28:26.671Z,11.90
2022-12-23T16:30:56.370Z,11.90
2022-12-23T16:33:43.719Z,12.18
2022-12-23T16:36:25.318Z,12.20
2022-12-23T16:39:15.533Z,11.93
2022-12-23T16:41:42.266Z,11.80
2022-12-23T16:44:09.041Z,12.10
2022-12-23T16:46:48.344Z,12.10
2022-12-23T16:49:18.721Z,11.07
2022-12-23T16:51:46.495Z,11.48
2022-12-23T16:54:16.329Z,11.10
2022-12-23T16:56:44.299Z,12.07
2022-12-23T16:59:11.110Z,11.13
2022-12-23T17:01:41.099Z,11.70
2022-12-23T17:04:08.791Z,11.40
2022-12-23T17:06:36.968Z,11.60
2022-12-23T17:09:05.372Z,11.48
2022-12-23T17:11:39.932Z,12.07
2022-12-23T17:14:15.267Z,11.20
2022-12-23T17:16:43.087Z,11.70
2022-12-23T17:19:09.884Z,11.32
2022-12-23T17:21:37.649Z,11.10
2022-12-23T17:24:24.081Z,11.25
2022-12-23T17:26:51.567Z,11.40
2022-12-23T17:29:18.613Z,11.47
2022-12-23T17:31:47.329Z,11.50
2022-12-23T17:34:19.906Z,11.20
2022-12-23T17:36:50.317Z,11.80
2022-12-23T17:39:18.651Z,11.82
2022-12-23T17:41:45.766Z,11.75
2022-12-23T17:44:15.329Z,11.18
2022-12-23T17:46:42.311Z,12.57
2022-12-23T17:49:09.195Z,11.60
2022-12-23T17:51:37.514Z,12.38
2022-12-23T17:54:05.711Z,11.18
2022-12-23T17:56:32.897Z,12.00
2022-12-23T17:58:59.669Z,12.50
2022-12-23T18:01:27.800Z,13.43
2022-12-23T18:03:56.331Z,13.00
2022-12-23T18:06:24.971Z,11.50
2022-12-23T18:08:51.731Z,12.00
2022-12-23T18:11:39.468Z,11.60
2022-12-23T18:14:12.287Z,11.50
2022-12-23T18:16:39.146Z,11.60
2022-12-23T18:19:15.211Z,11.60
2022-12-23T18:21:42.176Z,11.80
2022-12-23T18:24:10.678Z,12.18
2022-12-23T18:26:37.645Z,11.80
2022-12-23T18:29:04.407Z,11.30
2022-12-23T18:31:31.271Z,11.75
2022-12-23T18:33:59.702Z,11.82
2022-12-23T18:36:30.476Z,11.57
2022-12-23T18:38:57.625Z,10.88
2022-12-23T18:41:26.205Z,12.60
2022-12-23T18:43:53.363Z,11.50
2022-12-23T18:46:22.506Z,10.95
2022-12-23T18:48:49.479Z,11.20
2022-12-23T18:51:18.855Z,11.50
2022-12-23T18:53:46.703Z,11.00
2022-12-23T18:56:14.490Z,10.80
2022-12-23T18:58:41.295Z,11.40
2022-12-23T19:01:18.439Z,11.15
2022-12-23T19:03:46.216Z,11.17
2022-12-23T19:06:14.986Z,11.20
2022-12-23T19:08:42.519Z,11.30
2022-12-23T19:11:18.425Z,11.20
2022-12-23T19:13:45.686Z,12.52
2022-12-23T19:16:17.755Z,12.60
2022-12-23T19:18:45.515Z,11.10
2022-12-23T19:21:12.488Z,11.20
2022-12-23T19:23:40.848Z,11.10
2022-12-23T19:26:10.284Z,11.63
2022-12-23T19:28:38.248Z,11.90
2022-12-23T19:31:10.372Z,11.50
2022-12-23T19:33:38.825Z,11.60
2022-12-23T19:36:13.682Z,12.40
2022-12-23T19:38:40.665Z,11.77
2022-12-23T19:41:08.659Z,11.30
2022-12-23T19:43:37.301Z,11.38
2022-12-23T19:46:07.385Z,11.23
2022-12-23T19:48:34.658Z,11.50
2022-12-23T19:51:10.132Z,11.20
2022-12-23T19:53:37.871Z,11.90
2022-12-23T19:56:15.582Z,11.70
2022-12-23T19:58:44.105Z,12.55
2022-12-23T20:01:20.188Z,12.05
2022-12-23T20:03:48.666Z,11.50
2022-12-23T20:06:18.870Z,11.75
2022-12-23T20:08:47.077Z,12.13
2022-12-23T20:11:17.255Z,11.40
2022-12-23T20:13:44.987Z,11.40
2022-12-23T20:16:13.440Z,11.37
2022-12-23T20:18:40.488Z,12.05
2022-12-23T20:21:07.505Z,11.70
2022-12-23T20:23:34.724Z,11.30
2022-12-23T20:26:04.017Z,11.80
2022-12-23T20:28:31.368Z,11.80
2022-12-23T20:31:09.279Z,12.10
2022-12-23T20:33:38.109Z,12.20
2022-12-23T20:36:09.263Z,11.00
2022-12-23T20:38:38.604Z,12.80
2022-12-23T20:41:06.993Z,11.52
2022-12-23T20:43:34.905Z,11.55
2022-12-23T20:46:03.349Z,11.07
2022-12-23T20:48:34.640Z,11.18
2022-12-23T20:51:11.636Z,11.40
2022-12-23T20:53:38.568Z,12.30
2022-12-23T20:56:15.566Z,12.00
2022-12-23T20:58:55.079Z,11.10
2022-12-23T21:01:22.733Z,12.20
2022-12-23T21:03:49.445Z,11.65
2022-12-23T21:06:16.200Z,13.45
2022-12-23T21:08:43.245Z,13.07
2022-12-23T21:11:10.500Z,13.43
2022-12-23T21:13:40.269Z,11.90
2022-12-23T21:16:09.877Z,12.27
2022-12-23T21:18:43.620Z,12.15
2022-12-23T21:21:11.517Z,12.30
2022-12-23T21:23:40.057Z,14.82
2022-12-23T21:26:11.582Z,14.13
2022-12-23T21:28:40.368Z,14.10
2022-12-23T21:31:07.582Z,14.47
2022-12-23T21:33:39.146Z,12.90
2022-12-23T21:36:08.052Z,13.10
2022-12-23T21:38:37.979Z,11.55
2022-12-23T21:41:07.367Z,12.25
2022-12-23T21:43:34.655Z,11.80
2022-12-23T21:46:03.940Z,12.07
2022-12-23T21:48:32.894Z,11.45
2022-12-23T21:51:14.076Z,11.80
2022-12-23T21:53:42.303Z,11.75
2022-12-23T21:56:11.736Z,11.20
2022-12-23T21:58:38.851Z,11.32
2022-12-23T22:01:11.391Z,12.00
2022-12-23T22:03:38.356Z,11.70
2022-12-23T22:06:11.063Z,12.30
2022-12-23T22:08:38.883Z,11.60
2022-12-23T22:11:11.291Z,12.13
2022-12-23T22:13:39.047Z,12.05
2022-12-23T22:16:09.857Z,13.13
2022-12-23T22:18:37.681Z,11.68
2022-12-23T22:21:09.542Z,11.95
2022-12-23T22:23:36.995Z,11.43
2022-12-23T22:26:05.146Z,11.40
2022-12-23T22:28:34.197Z,11.90
2022-12-23T22:31:05.996Z,12.48
2022-12-23T22:33:33.769Z,12.15
2022-12-23T22:36:00.678Z,12.27
2022-12-23T22:38:27.594Z,13.03
2022-12-23T22:40:54.563Z,13.55
2022-12-23T22:43:21.377Z,13.80
2022-12-23T22:45:59.014Z,13.18
2022-12-23T22:48:26.804Z,14.30
2022-12-23T22:51:04.137Z,15.20
2022-12-23T22:53:31.042Z,14.90
2022-12-23T22:56:01.846Z,12.77
2022-12-23T22:58:30.126Z,12.20
2022-12-23T23:00:57.631Z,12.50
2022-12-23T23:03:26.203Z,12.05
2022-12-23T23:06:07.206Z,12.55
2022-12-23T23:08:34.959Z,12.75
2022-12-23T23:11:03.722Z,12.20
2022-12-23T23:13:33.579Z,13.07
2022-12-23T23:16:01.477Z,11.98
2022-12-23T23:18:29.576Z,11.20
2022-12-23T23:20:56.337Z,12.40
2022-12-23T23:23:23.326Z,11.88
2022-12-23T23:25:50.706Z,11.98
2022-12-23T23:28:17.797Z,12.70
2022-12-23T23:30:44.799Z,14.37
2022-12-23T23:33:11.693Z,12.20
2022-12-23T23:35:38.530Z,13.50
2022-12-23T23:38:05.581Z,12.35
2022-12-23T23:40:32.513Z,12.27
2022-12-23T23:42:59.806Z,13.05
2022-12-23T23:45:27.524Z,11.90
2022-12-23T23:47:55.240Z,12.90
2022-12-23T23:50:22.252Z,12.35
2022-12-23T23:52:49.133Z,13.73
2022-12-23T23:55:16.196Z,13.30
2022-12-23T23:57:43.111Z,13.18
